sensor_id;sensor_type;location;lat;lon;timestamp;temperature;humidity
14357;DHT22;7262;48.764;9.166;2022-08-19T00:00:52;21.90;99.90
14357;DHT22;7262;48.764;9.166;2022-08-19T00:03:19;22.00;99.90
14357;DHT22;7262;48.764;9.166;2022-08-19T00:05:48;21.90;99.90
14357;DHT22;7262;48.764;9.166;2022-08-19T00:08:15;22.00;99.90
14357;DHT22;7262;48.764;9.166;2022-08-19T00:10:43;21.90;99.90
14357;DHT22;7262;48.764;9.166;2022-08-19T00:13:11;21.90;99.90
14357;DHT22;7262;48.764;9.166;2022-08-19T00:15:39;21.90;99.90
14357;DHT22;7262;48.764;9.166;2022-08-19T00:18:07;21.90;99.90
14357;DHT22;7262;48.764;9.166;2022-08-19T00:20:36;21.90;99.90
14357;DHT22;7262;48.764;9.166;2022-08-19T00:23:09;21.90;99.90
14357;DHT22;7262;48.764;9.166;2022-08-19T00:25:36;21.90;99.90
14357;DHT22;7262;48.764;9.166;2022-08-19T00:28:03;21.80;99.90
14357;DHT22;7262;48.764;9.166;2022-08-19T00:30:31;21.80;99.90
14357;DHT22;7262;48.764;9.166;2022-08-19T00:32:58;21.80;99.90
14357;DHT22;7262;48.764;9.166;2022-08-19T00:35:26;21.80;99.90
14357;DHT22;7262;48.764;9.166;2022-08-19T00:37:54;21.80;99.90
14357;DHT22;7262;48.764;9.166;2022-08-19T00:40:22;21.80;99.90
14357;DHT22;7262;48.764;9.166;2022-08-19T00:42:50;21.80;99.90
14357;DHT22;7262;48.764;9.166;2022-08-19T00:45:21;21.80;99.90
14357;DHT22;7262;48.764;9.166;2022-08-19T00:47:48;21.80;99.90
14357;DHT22;7262;48.764;9.166;2022-08-19T00:50:16;21.70;99.90
14357;DHT22;7262;48.764;9.166;2022-08-19T00:52:44;21.70;99.90
14357;DHT22;7262;48.764;9.166;2022-08-19T00:55:14;21.70;99.90
14357;DHT22;7262;48.764;9.166;2022-08-19T00:57:45;21.70;99.90
14357;DHT22;7262;48.764;9.166;2022-08-19T01:00:15;21.70;99.90
14357;DHT22;7262;48.764;9.166;2022-08-19T01:02:43;21.70;99.90
14357;DHT22;7262;48.764;9.166;2022-08-19T01:05:11;21.70;99.90
14357;DHT22;7262;48.764;9.166;2022-08-19T01:07:53;21.70;99.90
14357;DHT22;7262;48.764;9.166;2022-08-19T01:10:21;21.70;99.90
14357;DHT22;7262;48.764;9.166;2022-08-19T01:12:52;21.70;99.90
14357;DHT22;7262;48.764;9.166;2022-08-19T01:15:21;21.70;99.90
14357;DHT22;7262;48.764;9.166;2022-08-19T01:17:49;21.60;99.90
14357;DHT22;7262;48.764;9.166;2022-08-19T01:20:19;21.60;99.90
14357;DHT22;7262;48.764;9.166;2022-08-19T01:22:49;21.60;99.90
14357;DHT22;7262;48.764;9.166;2022-08-19T01:25:18;21.60;99.90
14357;DHT22;7262;48.764;9.166;2022-08-19T01:27:46;21.60;99.90
14357;DHT22;7262;48.764;9.166;2022-08-19T01:30:14;21.60;99.90
14357;DHT22;7262;48.764;9.166;2022-08-19T01:32:42;21.60;99.90
14357;DHT22;7262;48.764;9.166;2022-08-19T01:35:10;21.60;99.90
14357;DHT22;7262;48.764;9.166;2022-08-19T01:37:49;21.60;99.90
14357;DHT22;7262;48.764;9.166;2022-08-19T01:40:17;21.60;99.90
14357;DHT22;7262;48.764;9.166;2022-08-19T01:42:45;21.60;99.90
14357;DHT22;7262;48.764;9.166;2022-08-19T01:45:15;21.50;99.90
14357;DHT22;7262;48.764;9.166;2022-08-19T01:47:42;21.50;99.90
14357;DHT22;7262;48.764;9.166;2022-08-19T01:50:10;21.50;99.90
14357;DHT22;7262;48.764;9.166;2022-08-19T01:52:42;21.50;99.90
14357;DHT22;7262;48.764;9.166;2022-08-19T01:55:14;21.50;99.90
14357;DHT22;7262;48.764;9.166;2022-08-19T01:57:42;21.50;99.90
14357;DHT22;7262;48.764;9.166;2022-08-19T02:00:15;21.50;99.90
14357;DHT22;7262;48.764;9.166;2022-08-19T02:02:43;21.50;99.90
14357;DHT22;7262;48.764;9.166;2022-08-19T02:05:11;21.60;99.90
14357;DHT22;7262;48.764;9.166;2022-08-19T02:07:39;21.60;99.90
14357;DHT22;7262;48.764;9.166;2022-08-19T02:10:08;21.50;99.90
14357;DHT22;7262;48.764;9.166;2022-08-19T02:12:41;21.50;99.90
14357;DHT22;7262;48.764;9.166;2022-08-19T02:15:09;21.50;99.90
14357;DHT22;7262;48.764;9.166;2022-08-19T02:17:36;21.40;99.90
14357;DHT22;7262;48.764;9.166;2022-08-19T02:20:06;21.40;99.90
14357;DHT22;7262;48.764;9.166;2022-08-19T02:22:34;21.40;99.90
14357;DHT22;7262;48.764;9.166;2022-08-19T02:25:03;21.40;99.90
14357;DHT22;7262;48.764;9.166;2022-08-19T02:27:31;21.30;99.90
14357;DHT22;7262;48.764;9.166;2022-08-19T02:30:00;21.20;99.90
14357;DHT22;7262;48.764;9.166;2022-08-19T02:32:27;21.20;99.90
14357;DHT22;7262;48.764;9.166;2022-08-19T02:34:56;21.20;99.90
14357;DHT22;7262;48.764;9.166;2022-08-19T02:37:23;21.30;99.90
14357;DHT22;7262;48.764;9.166;2022-08-19T02:40:08;21.30;99.90
14357;DHT22;7262;48.764;9.166;2022-08-19T02:42:35;21.30;99.90
14357;DHT22;7262;48.764;9.166;2022-08-19T02:45:04;21.20;99.90
14357;DHT22;7262;48.764;9.166;2022-08-19T02:47:32;21.20;99.90
14357;DHT22;7262;48.764;9.166;2022-08-19T02:50:00;21.20;99.90
14357;DHT22;7262;48.764;9.166;2022-08-19T02:52:27;21.20;99.90
14357;DHT22;7262;48.764;9.166;2022-08-19T02:54:54;21.20;99.90
14357;DHT22;7262;48.764;9.166;2022-08-19T02:57:25;21.20;99.90
14357;DHT22;7262;48.764;9.166;2022-08-19T03:00:02;21.20;99.90
14357;DHT22;7262;48.764;9.166;2022-08-19T03:02:32;21.10;99.90
14357;DHT22;7262;48.764;9.166;2022-08-19T03:05:02;21.00;99.90
14357;DHT22;7262;48.764;9.166;2022-08-19T03:07:32;20.90;99.90
14357;DHT22;7262;48.764;9.166;2022-08-19T03:10:00;20.80;99.90
14357;DHT22;7262;48.764;9.166;2022-08-19T03:12:27;20.80;99.90
14357;DHT22;7262;48.764;9.166;2022-08-19T03:14:55;20.80;99.90
14357;DHT22;7262;48.764;9.166;2022-08-19T03:17:22;20.90;99.90
14357;DHT22;7262;48.764;9.166;2022-08-19T03:19:54;20.80;99.90
14357;DHT22;7262;48.764;9.166;2022-08-19T03:22:24;20.80;99.90
14357;DHT22;7262;48.764;9.166;2022-08-19T03:24:51;20.80;99.90
14357;DHT22;7262;48.764;9.166;2022-08-19T03:27:19;20.80;99.90
14357;DHT22;7262;48.764;9.166;2022-08-19T03:29:47;20.70;99.90
14357;DHT22;7262;48.764;9.166;2022-08-19T03:32:15;20.70;99.90
14357;DHT22;7262;48.764;9.166;2022-08-19T03:34:42;20.70;99.90
14357;DHT22;7262;48.764;9.166;2022-08-19T03:37:11;20.60;99.90
14357;DHT22;7262;48.764;9.166;2022-08-19T03:39:41;20.60;99.90
14357;DHT22;7262;48.764;9.166;2022-08-19T03:42:08;20.60;99.90
14357;DHT22;7262;48.764;9.166;2022-08-19T03:44:36;20.60;99.90
14357;DHT22;7262;48.764;9.166;2022-08-19T03:47:04;20.60;99.90
14357;DHT22;7262;48.764;9.166;2022-08-19T03:49:32;20.60;99.90
14357;DHT22;7262;48.764;9.166;2022-08-19T03:52:01;20.50;99.90
14357;DHT22;7262;48.764;9.166;2022-08-19T03:54:35;20.50;99.90
14357;DHT22;7262;48.764;9.166;2022-08-19T03:57:04;20.50;99.90
14357;DHT22;7262;48.764;9.166;2022-08-19T03:59:34;20.50;99.90
14357;DHT22;7262;48.764;9.166;2022-08-19T04:02:04;20.40;99.90
14357;DHT22;7262;48.764;9.166;2022-08-19T04:04:34;20.40;99.90
14357;DHT22;7262;48.764;9.166;2022-08-19T04:07:03;20.50;99.90
14357;DHT22;7262;48.764;9.166;2022-08-19T04:09:32;20.50;99.90
14357;DHT22;7262;48.764;9.166;2022-08-19T04:12:02;20.50;99.90
14357;DHT22;7262;48.764;9.166;2022-08-19T04:14:31;20.50;99.90
14357;DHT22;7262;48.764;9.166;2022-08-19T04:16:59;20.40;99.90
14357;DHT22;7262;48.764;9.166;2022-08-19T04:19:28;20.40;99.90
14357;DHT22;7262;48.764;9.166;2022-08-19T04:21:56;20.40;99.90
14357;DHT22;7262;48.764;9.166;2022-08-19T04:24:23;20.40;99.90
14357;DHT22;7262;48.764;9.166;2022-08-19T04:26:51;20.40;99.90
14357;DHT22;7262;48.764;9.166;2022-08-19T04:29:20;20.30;99.90
14357;DHT22;7262;48.764;9.166;2022-08-19T04:31:50;20.30;99.90
14357;DHT22;7262;48.764;9.166;2022-08-19T04:34:19;20.30;99.90
14357;DHT22;7262;48.764;9.166;2022-08-19T04:36:48;20.30;99.90
14357;DHT22;7262;48.764;9.166;2022-08-19T04:39:17;20.40;99.90
14357;DHT22;7262;48.764;9.166;2022-08-19T04:41:44;20.40;99.90
14357;DHT22;7262;48.764;9.166;2022-08-19T04:44:31;20.40;99.90
14357;DHT22;7262;48.764;9.166;2022-08-19T04:46:58;20.40;99.90
14357;DHT22;7262;48.764;9.166;2022-08-19T04:49:26;20.40;99.90
14357;DHT22;7262;48.764;9.166;2022-08-19T04:51:53;20.40;99.90
14357;DHT22;7262;48.764;9.166;2022-08-19T04:54:21;20.30;99.90
14357;DHT22;7262;48.764;9.166;2022-08-19T04:56:49;20.40;99.90
14357;DHT22;7262;48.764;9.166;2022-08-19T04:59:17;20.40;99.90
14357;DHT22;7262;48.764;9.166;2022-08-19T05:01:47;20.30;99.90
14357;DHT22;7262;48.764;9.166;2022-08-19T05:04:15;20.40;99.90
14357;DHT22;7262;48.764;9.166;2022-08-19T05:06:43;20.40;99.90
14357;DHT22;7262;48.764;9.166;2022-08-19T05:09:10;20.40;99.90
14357;DHT22;7262;48.764;9.166;2022-08-19T05:11:37;20.40;99.90
14357;DHT22;7262;48.764;9.166;2022-08-19T05:14:05;20.50;99.90
14357;DHT22;7262;48.764;9.166;2022-08-19T05:16:32;20.40;99.90
14357;DHT22;7262;48.764;9.166;2022-08-19T05:19:00;20.50;99.90
14357;DHT22;7262;48.764;9.166;2022-08-19T05:21:44;20.60;99.90
14357;DHT22;7262;48.764;9.166;2022-08-19T05:24:37;20.60;99.90
14357;DHT22;7262;48.764;9.166;2022-08-19T05:27:08;20.50;99.90
14357;DHT22;7262;48.764;9.166;2022-08-19T05:29:48;20.60;99.90
14357;DHT22;7262;48.764;9.166;2022-08-19T05:32:15;20.60;99.90
14357;DHT22;7262;48.764;9.166;2022-08-19T05:34:43;20.50;99.90
14357;DHT22;7262;48.764;9.166;2022-08-19T05:37:10;20.50;99.90
14357;DHT22;7262;48.764;9.166;2022-08-19T05:39:37;20.60;99.90
14357;DHT22;7262;48.764;9.166;2022-08-19T05:42:06;20.50;99.90
14357;DHT22;7262;48.764;9.166;2022-08-19T05:44:35;20.60;99.90
14357;DHT22;7262;48.764;9.166;2022-08-19T05:47:03;20.70;99.90
14357;DHT22;7262;48.764;9.166;2022-08-19T05:49:31;20.70;99.90
14357;DHT22;7262;48.764;9.166;2022-08-19T05:52:00;20.70;99.90
14357;DHT22;7262;48.764;9.166;2022-08-19T05:54:27;20.60;99.90
14357;DHT22;7262;48.764;9.166;2022-08-19T05:56:55;20.50;99.90
14357;DHT22;7262;48.764;9.166;2022-08-19T05:59:22;20.50;99.90
14357;DHT22;7262;48.764;9.166;2022-08-19T06:01:49;20.60;99.90
14357;DHT22;7262;48.764;9.166;2022-08-19T06:04:17;20.60;99.90
14357;DHT22;7262;48.764;9.166;2022-08-19T06:06:45;20.60;99.90
14357;DHT22;7262;48.764;9.166;2022-08-19T06:09:13;20.60;99.90
14357;DHT22;7262;48.764;9.166;2022-08-19T06:11:41;20.60;99.90
14357;DHT22;7262;48.764;9.166;2022-08-19T06:14:10;20.60;99.90
14357;DHT22;7262;48.764;9.166;2022-08-19T06:16:38;20.70;99.90
14357;DHT22;7262;48.764;9.166;2022-08-19T06:19:06;20.60;99.90
14357;DHT22;7262;48.764;9.166;2022-08-19T06:21:34;20.70;99.90
14357;DHT22;7262;48.764;9.166;2022-08-19T06:24:03;20.60;99.90
14357;DHT22;7262;48.764;9.166;2022-08-19T06:26:33;20.60;99.90
14357;DHT22;7262;48.764;9.166;2022-08-19T06:29:00;20.60;99.90
14357;DHT22;7262;48.764;9.166;2022-08-19T06:31:27;20.70;99.90
14357;DHT22;7262;48.764;9.166;2022-08-19T06:33:56;20.70;99.90
14357;DHT22;7262;48.764;9.166;2022-08-19T06:36:24;20.60;99.90
14357;DHT22;7262;48.764;9.166;2022-08-19T06:38:52;20.60;99.90
14357;DHT22;7262;48.764;9.166;2022-08-19T06:41:20;20.70;99.90
14357;DHT22;7262;48.764;9.166;2022-08-19T06:43:48;20.70;99.90
14357;DHT22;7262;48.764;9.166;2022-08-19T06:46:16;20.60;99.90
14357;DHT22;7262;48.764;9.166;2022-08-19T06:48:43;20.60;99.90
14357;DHT22;7262;48.764;9.166;2022-08-19T06:51:10;20.50;99.90
14357;DHT22;7262;48.764;9.166;2022-08-19T06:53:40;20.40;99.90
14357;DHT22;7262;48.764;9.166;2022-08-19T06:56:12;20.40;99.90
14357;DHT22;7262;48.764;9.166;2022-08-19T06:58:39;20.30;99.90
14357;DHT22;7262;48.764;9.166;2022-08-19T07:01:08;20.30;99.90
14357;DHT22;7262;48.764;9.166;2022-08-19T07:03:36;20.30;99.90
14357;DHT22;7262;48.764;9.166;2022-08-19T07:06:03;20.20;99.90
14357;DHT22;7262;48.764;9.166;2022-08-19T07:08:30;20.20;99.90
14357;DHT22;7262;48.764;9.166;2022-08-19T07:10:57;20.20;99.90
14357;DHT22;7262;48.764;9.166;2022-08-19T07:13:24;20.20;99.90
14357;DHT22;7262;48.764;9.166;2022-08-19T07:15:50;20.20;99.90
14357;DHT22;7262;48.764;9.166;2022-08-19T07:18:30;20.30;99.90
14357;DHT22;7262;48.764;9.166;2022-08-19T07:21:02;20.30;99.90
14357;DHT22;7262;48.764;9.166;2022-08-19T07:23:29;20.30;99.90
14357;DHT22;7262;48.764;9.166;2022-08-19T07:25:56;20.30;99.90
14357;DHT22;7262;48.764;9.166;2022-08-19T07:28:23;20.40;99.90
14357;DHT22;7262;48.764;9.166;2022-08-19T07:30:50;20.40;99.90
14357;DHT22;7262;48.764;9.166;2022-08-19T07:33:17;20.50;99.90
14357;DHT22;7262;48.764;9.166;2022-08-19T07:35:45;20.50;99.90
14357;DHT22;7262;48.764;9.166;2022-08-19T07:38:12;20.50;99.90
14357;DHT22;7262;48.764;9.166;2022-08-19T07:40:40;20.60;99.90
14357;DHT22;7262;48.764;9.166;2022-08-19T07:43:11;20.50;99.90
14357;DHT22;7262;48.764;9.166;2022-08-19T07:45:37;20.60;99.90
14357;DHT22;7262;48.764;9.166;2022-08-19T07:48:04;20.60;99.90
14357;DHT22;7262;48.764;9.166;2022-08-19T07:50:32;20.60;99.90
14357;DHT22;7262;48.764;9.166;2022-08-19T07:53:00;20.60;99.90
14357;DHT22;7262;48.764;9.166;2022-08-19T07:55:27;20.50;99.90
14357;DHT22;7262;48.764;9.166;2022-08-19T07:57:55;20.50;99.90
14357;DHT22;7262;48.764;9.166;2022-08-19T08:00:22;20.60;99.90
14357;DHT22;7262;48.764;9.166;2022-08-19T08:02:49;20.60;99.90
14357;DHT22;7262;48.764;9.166;2022-08-19T08:05:17;20.60;99.90
14357;DHT22;7262;48.764;9.166;2022-08-19T08:08:03;20.60;99.90
14357;DHT22;7262;48.764;9.166;2022-08-19T08:10:47;20.60;99.90
14357;DHT22;7262;48.764;9.166;2022-08-19T08:13:17;20.60;99.90
14357;DHT22;7262;48.764;9.166;2022-08-19T08:15:44;20.80;99.90
14357;DHT22;7262;48.764;9.166;2022-08-19T08:18:11;20.60;99.90
14357;DHT22;7262;48.764;9.166;2022-08-19T08:20:38;20.70;99.90
14357;DHT22;7262;48.764;9.166;2022-08-19T08:23:06;20.60;99.90
14357;DHT22;7262;48.764;9.166;2022-08-19T08:25:50;20.60;99.90
14357;DHT22;7262;48.764;9.166;2022-08-19T08:28:18;20.70;99.90
14357;DHT22;7262;48.764;9.166;2022-08-19T08:30:45;20.70;99.90
14357;DHT22;7262;48.764;9.166;2022-08-19T08:33:17;20.70;99.90
14357;DHT22;7262;48.764;9.166;2022-08-19T08:35:44;20.60;99.90
14357;DHT22;7262;48.764;9.166;2022-08-19T08:38:13;20.50;99.90
14357;DHT22;7262;48.764;9.166;2022-08-19T08:40:42;20.50;99.90
14357;DHT22;7262;48.764;9.166;2022-08-19T08:43:13;20.40;99.90
14357;DHT22;7262;48.764;9.166;2022-08-19T08:45:47;20.30;99.90
14357;DHT22;7262;48.764;9.166;2022-08-19T08:48:17;20.30;99.90
14357;DHT22;7262;48.764;9.166;2022-08-19T08:50:45;20.30;99.90
14357;DHT22;7262;48.764;9.166;2022-08-19T08:53:16;20.40;99.90
14357;DHT22;7262;48.764;9.166;2022-08-19T08:55:43;20.30;99.90
14357;DHT22;7262;48.764;9.166;2022-08-19T08:58:12;20.30;99.90
14357;DHT22;7262;48.764;9.166;2022-08-19T09:00:42;20.30;99.90
14357;DHT22;7262;48.764;9.166;2022-08-19T09:03:14;20.40;99.90
14357;DHT22;7262;48.764;9.166;2022-08-19T09:05:45;20.40;99.90
14357;DHT22;7262;48.764;9.166;2022-08-19T09:08:18;20.40;99.90
14357;DHT22;7262;48.764;9.166;2022-08-19T09:10:51;20.40;99.90
14357;DHT22;7262;48.764;9.166;2022-08-19T09:13:20;20.40;99.90
14357;DHT22;7262;48.764;9.166;2022-08-19T09:15:55;20.40;99.90
14357;DHT22;7262;48.764;9.166;2022-08-19T09:18:25;20.40;99.90
14357;DHT22;7262;48.764;9.166;2022-08-19T09:20:51;20.50;99.90
14357;DHT22;7262;48.764;9.166;2022-08-19T09:23:20;20.60;99.90
14357;DHT22;7262;48.764;9.166;2022-08-19T09:25:50;20.60;99.90
14357;DHT22;7262;48.764;9.166;2022-08-19T09:28:18;20.80;99.90
14357;DHT22;7262;48.764;9.166;2022-08-19T09:30:44;20.90;99.90
14357;DHT22;7262;48.764;9.166;2022-08-19T09:33:11;20.90;99.90
14357;DHT22;7262;48.764;9.166;2022-08-19T09:35:39;20.90;99.90
14357;DHT22;7262;48.764;9.166;2022-08-19T09:38:05;21.10;99.90
14357;DHT22;7262;48.764;9.166;2022-08-19T09:40:34;21.10;99.90
14357;DHT22;7262;48.764;9.166;2022-08-19T09:43:01;21.30;99.90
14357;DHT22;7262;48.764;9.166;2022-08-19T09:45:29;21.30;99.90
14357;DHT22;7262;48.764;9.166;2022-08-19T09:47:56;21.30;99.90
14357;DHT22;7262;48.764;9.166;2022-08-19T09:50:23;21.40;99.90
14357;DHT22;7262;48.764;9.166;2022-08-19T09:52:50;21.50;99.90
14357;DHT22;7262;48.764;9.166;2022-08-19T09:55:19;21.60;99.90
14357;DHT22;7262;48.764;9.166;2022-08-19T09:57:47;21.60;99.90
14357;DHT22;7262;48.764;9.166;2022-08-19T10:00:14;21.70;99.90
14357;DHT22;7262;48.764;9.166;2022-08-19T10:02:43;21.80;99.90
14357;DHT22;7262;48.764;9.166;2022-08-19T10:05:12;21.80;99.90
14357;DHT22;7262;48.764;9.166;2022-08-19T10:08:00;21.90;99.90
14357;DHT22;7262;48.764;9.166;2022-08-19T10:10:27;21.90;99.90
14357;DHT22;7262;48.764;9.166;2022-08-19T10:12:56;21.90;99.90
14357;DHT22;7262;48.764;9.166;2022-08-19T10:15:25;22.00;99.90
14357;DHT22;7262;48.764;9.166;2022-08-19T10:17:51;22.10;99.90
14357;DHT22;7262;48.764;9.166;2022-08-19T10:20:18;22.10;99.90
14357;DHT22;7262;48.764;9.166;2022-08-19T10:22:45;21.90;99.90
14357;DHT22;7262;48.764;9.166;2022-08-19T10:25:12;22.00;99.90
14357;DHT22;7262;48.764;9.166;2022-08-19T10:27:41;22.10;99.90
14357;DHT22;7262;48.764;9.166;2022-08-19T10:30:12;22.10;99.90
14357;DHT22;7262;48.764;9.166;2022-08-19T10:32:39;22.30;99.90
14357;DHT22;7262;48.764;9.166;2022-08-19T10:35:06;22.20;99.90
14357;DHT22;7262;48.764;9.166;2022-08-19T10:37:33;22.30;99.90
14357;DHT22;7262;48.764;9.166;2022-08-19T10:40:01;22.20;99.90
14357;DHT22;7262;48.764;9.166;2022-08-19T10:42:31;22.30;99.90
14357;DHT22;7262;48.764;9.166;2022-08-19T10:44:58;22.40;99.90
14357;DHT22;7262;48.764;9.166;2022-08-19T10:47:34;22.30;99.90
14357;DHT22;7262;48.764;9.166;2022-08-19T10:50:02;22.20;99.90
14357;DHT22;7262;48.764;9.166;2022-08-19T10:52:47;22.20;99.90
14357;DHT22;7262;48.764;9.166;2022-08-19T10:55:14;22.20;99.90
14357;DHT22;7262;48.764;9.166;2022-08-19T10:57:59;22.40;99.90
14357;DHT22;7262;48.764;9.166;2022-08-19T11:00:25;22.60;99.90
14357;DHT22;7262;48.764;9.166;2022-08-19T11:02:54;22.70;99.90
14357;DHT22;7262;48.764;9.166;2022-08-19T11:05:21;22.90;99.90
14357;DHT22;7262;48.764;9.166;2022-08-19T11:07:48;22.80;99.90
14357;DHT22;7262;48.764;9.166;2022-08-19T11:10:17;22.70;99.90
14357;DHT22;7262;48.764;9.166;2022-08-19T11:12:47;22.50;99.90
14357;DHT22;7262;48.764;9.166;2022-08-19T11:15:19;22.60;99.90
14357;DHT22;7262;48.764;9.166;2022-08-19T11:17:46;22.60;99.90
14357;DHT22;7262;48.764;9.166;2022-08-19T11:20:14;22.60;99.90
14357;DHT22;7262;48.764;9.166;2022-08-19T11:22:42;22.60;99.90
14357;DHT22;7262;48.764;9.166;2022-08-19T11:25:11;22.70;99.90
14357;DHT22;7262;48.764;9.166;2022-08-19T11:27:38;22.80;99.90
14357;DHT22;7262;48.764;9.166;2022-08-19T11:30:07;22.90;99.90
14357;DHT22;7262;48.764;9.166;2022-08-19T11:32:34;23.10;99.90
14357;DHT22;7262;48.764;9.166;2022-08-19T11:35:02;23.20;99.90
14357;DHT22;7262;48.764;9.166;2022-08-19T11:37:36;23.40;99.90
14357;DHT22;7262;48.764;9.166;2022-08-19T11:40:04;23.40;99.90
14357;DHT22;7262;48.764;9.166;2022-08-19T11:42:31;23.50;99.90
14357;DHT22;7262;48.764;9.166;2022-08-19T11:45:15;23.70;99.90
14357;DHT22;7262;48.764;9.166;2022-08-19T11:47:42;23.70;99.90
14357;DHT22;7262;48.764;9.166;2022-08-19T11:50:11;23.90;99.90
14357;DHT22;7262;48.764;9.166;2022-08-19T11:52:42;24.00;99.90
14357;DHT22;7262;48.764;9.166;2022-08-19T11:55:09;24.00;99.90
14357;DHT22;7262;48.764;9.166;2022-08-19T11:57:37;23.90;99.90
14357;DHT22;7262;48.764;9.166;2022-08-19T12:00:04;23.90;99.90
14357;DHT22;7262;48.764;9.166;2022-08-19T12:02:39;23.80;99.90
14357;DHT22;7262;48.764;9.166;2022-08-19T12:05:07;23.90;99.90
14357;DHT22;7262;48.764;9.166;2022-08-19T12:07:35;24.00;99.90
14357;DHT22;7262;48.764;9.166;2022-08-19T12:10:05;23.90;99.90
14357;DHT22;7262;48.764;9.166;2022-08-19T12:12:36;23.90;99.90
14357;DHT22;7262;48.764;9.166;2022-08-19T12:15:08;24.00;99.90
14357;DHT22;7262;48.764;9.166;2022-08-19T12:17:40;23.90;99.90
14357;DHT22;7262;48.764;9.166;2022-08-19T12:20:10;23.70;99.90
14357;DHT22;7262;48.764;9.166;2022-08-19T12:22:39;23.70;99.90
14357;DHT22;7262;48.764;9.166;2022-08-19T12:25:10;23.60;99.90
14357;DHT22;7262;48.764;9.166;2022-08-19T12:27:38;23.60;99.90
14357;DHT22;7262;48.764;9.166;2022-08-19T12:30:07;23.70;99.90
14357;DHT22;7262;48.764;9.166;2022-08-19T12:32:35;23.70;99.90
14357;DHT22;7262;48.764;9.166;2022-08-19T12:35:05;24.00;99.90
14357;DHT22;7262;48.764;9.166;2022-08-19T12:37:34;23.90;99.90
14357;DHT22;7262;48.764;9.166;2022-08-19T12:40:03;23.80;99.90
14357;DHT22;7262;48.764;9.166;2022-08-19T12:42:34;23.70;99.90
14357;DHT22;7262;48.764;9.166;2022-08-19T12:45:03;23.50;99.90
14357;DHT22;7262;48.764;9.166;2022-08-19T12:47:30;23.30;99.90
14357;DHT22;7262;48.764;9.166;2022-08-19T12:49:59;23.10;99.90
14357;DHT22;7262;48.764;9.166;2022-08-19T12:52:26;22.90;99.90
14357;DHT22;7262;48.764;9.166;2022-08-19T12:54:56;22.90;99.90
14357;DHT22;7262;48.764;9.166;2022-08-19T12:57:44;22.90;99.90
14357;DHT22;7262;48.764;9.166;2022-08-19T13:00:35;22.90;99.90
14357;DHT22;7262;48.764;9.166;2022-08-19T13:03:06;23.00;99.90
14357;DHT22;7262;48.764;9.166;2022-08-19T13:05:34;23.20;99.90
14357;DHT22;7262;48.764;9.166;2022-08-19T13:08:01;23.30;99.90
14357;DHT22;7262;48.764;9.166;2022-08-19T13:10:30;23.50;99.90
14357;DHT22;7262;48.764;9.166;2022-08-19T13:13:00;23.50;99.90
14357;DHT22;7262;48.764;9.166;2022-08-19T13:15:28;23.60;99.90
14357;DHT22;7262;48.764;9.166;2022-08-19T13:17:58;23.50;99.90
14357;DHT22;7262;48.764;9.166;2022-08-19T13:20:30;23.40;99.90
14357;DHT22;7262;48.764;9.166;2022-08-19T13:22:57;23.30;99.90
14357;DHT22;7262;48.764;9.166;2022-08-19T13:25:27;23.30;99.90
14357;DHT22;7262;48.764;9.166;2022-08-19T13:27:55;23.00;99.90
14357;DHT22;7262;48.764;9.166;2022-08-19T13:30:25;22.80;99.90
14357;DHT22;7262;48.764;9.166;2022-08-19T13:33:10;22.50;99.90
14357;DHT22;7262;48.764;9.166;2022-08-19T13:35:37;22.40;99.90
14357;DHT22;7262;48.764;9.166;2022-08-19T13:38:05;22.40;99.90
14357;DHT22;7262;48.764;9.166;2022-08-19T13:40:32;22.50;99.90
14357;DHT22;7262;48.764;9.166;2022-08-19T13:43:00;22.40;99.90
14357;DHT22;7262;48.764;9.166;2022-08-19T13:45:28;22.20;99.90
14357;DHT22;7262;48.764;9.166;2022-08-19T13:47:59;22.30;99.90
14357;DHT22;7262;48.764;9.166;2022-08-19T13:50:28;22.30;99.90
14357;DHT22;7262;48.764;9.166;2022-08-19T13:53:07;22.30;99.90
14357;DHT22;7262;48.764;9.166;2022-08-19T13:55:42;22.30;99.90
14357;DHT22;7262;48.764;9.166;2022-08-19T13:58:10;22.10;99.90
14357;DHT22;7262;48.764;9.166;2022-08-19T14:00:39;21.90;99.90
14357;DHT22;7262;48.764;9.166;2022-08-19T14:03:07;21.60;99.90
14357;DHT22;7262;48.764;9.166;2022-08-19T14:05:36;21.60;99.90
14357;DHT22;7262;48.764;9.166;2022-08-19T14:08:04;21.40;99.90
14357;DHT22;7262;48.764;9.166;2022-08-19T14:10:31;21.30;99.90
14357;DHT22;7262;48.764;9.166;2022-08-19T14:13:00;21.20;99.90
14357;DHT22;7262;48.764;9.166;2022-08-19T14:15:27;21.20;99.90
14357;DHT22;7262;48.764;9.166;2022-08-19T14:17:54;21.20;99.90
14357;DHT22;7262;48.764;9.166;2022-08-19T14:20:22;21.30;99.90
14357;DHT22;7262;48.764;9.166;2022-08-19T14:22:50;21.40;99.90
14357;DHT22;7262;48.764;9.166;2022-08-19T14:25:19;21.40;99.90
14357;DHT22;7262;48.764;9.166;2022-08-19T14:27:46;21.50;99.90
14357;DHT22;7262;48.764;9.166;2022-08-19T14:30:14;21.70;99.90
14357;DHT22;7262;48.764;9.166;2022-08-19T14:32:41;21.70;99.90
14357;DHT22;7262;48.764;9.166;2022-08-19T14:35:10;21.90;99.90
14357;DHT22;7262;48.764;9.166;2022-08-19T14:37:38;21.90;99.90
14357;DHT22;7262;48.764;9.166;2022-08-19T14:40:07;21.80;99.90
14357;DHT22;7262;48.764;9.166;2022-08-19T14:42:34;21.80;99.90
14357;DHT22;7262;48.764;9.166;2022-08-19T14:45:01;21.90;99.90
14357;DHT22;7262;48.764;9.166;2022-08-19T14:47:30;21.90;99.90
14357;DHT22;7262;48.764;9.166;2022-08-19T14:49:57;22.30;99.90
14357;DHT22;7262;48.764;9.166;2022-08-19T14:52:24;22.40;99.90
14357;DHT22;7262;48.764;9.166;2022-08-19T14:54:51;22.40;99.90
14357;DHT22;7262;48.764;9.166;2022-08-19T14:57:20;22.40;99.90
14357;DHT22;7262;48.764;9.166;2022-08-19T14:59:47;22.50;99.90
14357;DHT22;7262;48.764;9.166;2022-08-19T15:02:17;22.70;99.90
14357;DHT22;7262;48.764;9.166;2022-08-19T15:04:47;22.50;99.90
14357;DHT22;7262;48.764;9.166;2022-08-19T15:07:15;22.50;99.90
14357;DHT22;7262;48.764;9.166;2022-08-19T15:09:42;22.50;99.90
14357;DHT22;7262;48.764;9.166;2022-08-19T15:12:09;22.50;99.90
14357;DHT22;7262;48.764;9.166;2022-08-19T15:14:40;22.60;99.90
14357;DHT22;7262;48.764;9.166;2022-08-19T15:17:12;22.60;99.90
14357;DHT22;7262;48.764;9.166;2022-08-19T15:19:43;22.70;99.90
14357;DHT22;7262;48.764;9.166;2022-08-19T15:22:21;22.90;99.90
14357;DHT22;7262;48.764;9.166;2022-08-19T15:24:52;23.10;99.90
14357;DHT22;7262;48.764;9.166;2022-08-19T15:27:20;23.30;99.90
14357;DHT22;7262;48.764;9.166;2022-08-19T15:29:49;23.30;99.90
14357;DHT22;7262;48.764;9.166;2022-08-19T15:32:16;23.30;99.90
14357;DHT22;7262;48.764;9.166;2022-08-19T15:34:43;23.30;99.90
14357;DHT22;7262;48.764;9.166;2022-08-19T15:37:11;23.20;99.90
14357;DHT22;7262;48.764;9.166;2022-08-19T15:39:40;23.20;99.90
14357;DHT22;7262;48.764;9.166;2022-08-19T15:42:08;23.30;99.90
14357;DHT22;7262;48.764;9.166;2022-08-19T15:44:36;23.40;99.90
14357;DHT22;7262;48.764;9.166;2022-08-19T15:47:04;23.60;99.90
14357;DHT22;7262;48.764;9.166;2022-08-19T15:49:31;23.70;99.90
14357;DHT22;7262;48.764;9.166;2022-08-19T15:52:10;23.90;99.90
14357;DHT22;7262;48.764;9.166;2022-08-19T15:54:38;23.80;99.90
14357;DHT22;7262;48.764;9.166;2022-08-19T15:57:07;23.90;99.90